sensor_id;sensor_type;location;lat;lon;timestamp;pressure;altitude;pressure_sealevel;temperature;humidity
63006;BME280;53704;52.532;6.426;2022-07-26T00:01:11;101134.38;;;17.66;80.60
63006;BME280;53704;52.532;6.426;2022-07-26T00:03:37;101140.75;;;17.94;80.27
63006;BME280;53704;52.532;6.426;2022-07-26T00:06:02;101130.28;;;17.97;79.56
63006;BME280;53704;52.532;6.426;2022-07-26T00:08:28;101136.16;;;18.01;79.94
63006;BME280;53704;52.532;6.426;2022-07-26T00:10:53;101140.75;;;17.94;79.52
63006;BME280;53704;52.532;6.426;2022-07-26T00:13:19;101128.22;;;18.06;79.20
63006;BME280;53704;52.532;6.426;2022-07-26T00:15:46;101130.34;;;18.11;78.87
63006;BME280;53704;52.532;6.426;2022-07-26T00:18:13;101136.81;;;18.10;79.56
63006;BME280;53704;52.532;6.426;2022-07-26T00:20:39;101137.22;;;18.06;78.17
63006;BME280;53704;52.532;6.426;2022-07-26T00:23:05;101134.09;;;18.03;78.58
63006;BME280;53704;52.532;6.426;2022-07-26T00:25:31;101146.00;;;17.88;80.18
63006;BME280;53704;52.532;6.426;2022-07-26T00:27:57;101140.97;;;17.92;79.24
63006;BME280;53704;52.532;6.426;2022-07-26T00:30:23;101141.38;;;17.89;79.29
63006;BME280;53704;52.532;6.426;2022-07-26T00:32:49;101148.06;;;17.93;79.13
63006;BME280;53704;52.532;6.426;2022-07-26T00:35:17;101148.72;;;17.95;78.28
63006;BME280;53704;52.532;6.426;2022-07-26T00:37:42;101152.66;;;17.86;79.58
63006;BME280;53704;52.532;6.426;2022-07-26T00:40:09;101148.91;;;17.87;79.90
63006;BME280;53704;52.532;6.426;2022-07-26T00:42:34;101151.75;;;17.72;79.60
63006;BME280;53704;52.532;6.426;2022-07-26T00:45:00;101147.53;;;17.69;79.78
63006;BME280;53704;52.532;6.426;2022-07-26T00:47:25;101145.00;;;17.61;80.22
63006;BME280;53704;52.532;6.426;2022-07-26T00:49:51;101154.88;;;17.69;80.22
63006;BME280;53704;52.532;6.426;2022-07-26T00:52:16;101152.44;;;17.81;80.17
63006;BME280;53704;52.532;6.426;2022-07-26T00:54:43;101157.22;;;17.79;79.73
63006;BME280;53704;52.532;6.426;2022-07-26T00:57:10;101147.28;;;17.51;80.80
63006;BME280;53704;52.532;6.426;2022-07-26T00:59:37;101153.78;;;17.57;81.87
63006;BME280;53704;52.532;6.426;2022-07-26T01:02:05;101156.41;;;17.36;81.88
63006;BME280;53704;52.532;6.426;2022-07-26T01:04:31;101157.94;;;17.46;82.15
63006;BME280;53704;52.532;6.426;2022-07-26T01:06:56;101158.88;;;17.31;82.66
63006;BME280;53704;52.532;6.426;2022-07-26T01:09:22;101157.00;;;17.32;82.77
63006;BME280;53704;52.532;6.426;2022-07-26T01:11:48;101163.06;;;17.27;83.09
63006;BME280;53704;52.532;6.426;2022-07-26T01:14:14;101159.69;;;17.25;83.20
63006;BME280;53704;52.532;6.426;2022-07-26T01:16:41;101159.59;;;17.12;84.17
63006;BME280;53704;52.532;6.426;2022-07-26T01:19:08;101163.16;;;17.12;84.06
63006;BME280;53704;52.532;6.426;2022-07-26T01:21:33;101148.28;;;17.08;84.82
63006;BME280;53704;52.532;6.426;2022-07-26T01:23:59;101152.53;;;17.17;84.59
63006;BME280;53704;52.532;6.426;2022-07-26T01:26:24;101147.63;;;17.06;84.54
63006;BME280;53704;52.532;6.426;2022-07-26T01:28:50;101152.53;;;17.17;84.46
63006;BME280;53704;52.532;6.426;2022-07-26T01:31:15;101161.34;;;17.26;83.44
63006;BME280;53704;52.532;6.426;2022-07-26T01:33:41;101155.75;;;16.99;85.52
63006;BME280;53704;52.532;6.426;2022-07-26T01:36:07;101153.41;;;16.96;86.00
63006;BME280;53704;52.532;6.426;2022-07-26T01:38:33;101151.19;;;17.07;85.43
63006;BME280;53704;52.532;6.426;2022-07-26T01:40:58;101147.78;;;16.98;85.49
63006;BME280;53704;52.532;6.426;2022-07-26T01:43:24;101155.00;;;17.12;85.09
63006;BME280;53704;52.532;6.426;2022-07-26T01:45:49;101146.63;;;17.14;85.01
63006;BME280;53704;52.532;6.426;2022-07-26T01:48:15;101154.56;;;17.09;85.16
63006;BME280;53704;52.532;6.426;2022-07-26T01:50:40;101154.56;;;17.09;85.66
63006;BME280;53704;52.532;6.426;2022-07-26T01:53:06;101154.72;;;17.00;86.07
63006;BME280;53704;52.532;6.426;2022-07-26T01:55:32;101157.41;;;16.94;86.56
63006;BME280;53704;52.532;6.426;2022-07-26T01:57:57;101156.25;;;17.10;85.16
63006;BME280;53704;52.532;6.426;2022-07-26T02:00:23;101153.09;;;16.85;87.00
63006;BME280;53704;52.532;6.426;2022-07-26T02:02:48;101146.75;;;16.77;87.58
63006;BME280;53704;52.532;6.426;2022-07-26T02:05:14;101142.81;;;17.02;86.33
63006;BME280;53704;52.532;6.426;2022-07-26T02:07:41;101146.56;;;17.00;85.99
63006;BME280;53704;52.532;6.426;2022-07-26T02:10:11;101139.91;;;16.81;87.52
63006;BME280;53704;52.532;6.426;2022-07-26T02:12:37;101156.28;;;16.88;87.37
63006;BME280;53704;52.532;6.426;2022-07-26T02:15:06;101152.19;;;16.77;87.96
63006;BME280;53704;52.532;6.426;2022-07-26T02:17:32;101139.94;;;16.60;88.71
63006;BME280;53704;52.532;6.426;2022-07-26T02:19:57;101143.78;;;16.72;87.89
63006;BME280;53704;52.532;6.426;2022-07-26T02:22:23;101140.41;;;16.63;88.75
63006;BME280;53704;52.532;6.426;2022-07-26T02:24:49;101146.22;;;16.60;89.36
63006;BME280;53704;52.532;6.426;2022-07-26T02:27:14;101148.81;;;16.47;89.52
63006;BME280;53704;52.532;6.426;2022-07-26T02:29:40;101147.50;;;16.64;88.96
63006;BME280;53704;52.532;6.426;2022-07-26T02:32:06;101151.19;;;16.57;89.12
63006;BME280;53704;52.532;6.426;2022-07-26T02:34:31;101159.81;;;16.60;89.01
63006;BME280;53704;52.532;6.426;2022-07-26T02:36:57;101166.72;;;16.63;88.97
63006;BME280;53704;52.532;6.426;2022-07-26T02:39:23;101169.56;;;16.55;88.95
63006;BME280;53704;52.532;6.426;2022-07-26T02:41:58;101161.53;;;16.68;88.20
63006;BME280;53704;52.532;6.426;2022-07-26T02:44:25;101161.63;;;16.53;89.05
63006;BME280;53704;52.532;6.426;2022-07-26T02:46:51;101164.91;;;16.49;89.45
63006;BME280;53704;52.532;6.426;2022-07-26T02:49:17;101158.25;;;16.51;88.69
63006;BME280;53704;52.532;6.426;2022-07-26T02:51:43;101164.72;;;16.72;87.32
63006;BME280;53704;52.532;6.426;2022-07-26T02:54:08;101169.84;;;16.38;89.49
63006;BME280;53704;52.532;6.426;2022-07-26T02:56:34;101173.50;;;16.52;89.56
63006;BME280;53704;52.532;6.426;2022-07-26T02:58:59;101173.25;;;16.47;89.70
63006;BME280;53704;52.532;6.426;2022-07-26T03:01:25;101163.69;;;16.51;88.29
63006;BME280;53704;52.532;6.426;2022-07-26T03:03:50;101180.84;;;16.52;88.37
63006;BME280;53704;52.532;6.426;2022-07-26T03:06:17;101171.13;;;16.42;89.20
63006;BME280;53704;52.532;6.426;2022-07-26T03:08:43;101178.59;;;16.34;89.83
63006;BME280;53704;52.532;6.426;2022-07-26T03:11:08;101173.00;;;16.42;89.13
63006;BME280;53704;52.532;6.426;2022-07-26T03:13:34;101168.47;;;16.27;90.06
63006;BME280;53704;52.532;6.426;2022-07-26T03:16:00;101172.09;;;16.35;89.84
63006;BME280;53704;52.532;6.426;2022-07-26T03:18:25;101176.88;;;16.33;89.60
63006;BME280;53704;52.532;6.426;2022-07-26T03:20:50;101183.63;;;16.37;89.65
63006;BME280;53704;52.532;6.426;2022-07-26T03:23:16;101192.06;;;16.27;89.96
63006;BME280;53704;52.532;6.426;2022-07-26T03:25:42;101194.47;;;16.15;90.32
63006;BME280;53704;52.532;6.426;2022-07-26T03:28:08;101207.91;;;16.23;90.42
63006;BME280;53704;52.532;6.426;2022-07-26T03:30:33;101203.19;;;16.10;90.69
63006;BME280;53704;52.532;6.426;2022-07-26T03:32:58;101214.78;;;16.19;90.77
63006;BME280;53704;52.532;6.426;2022-07-26T03:35:24;101208.94;;;16.22;90.85
63006;BME280;53704;52.532;6.426;2022-07-26T03:37:50;101197.22;;;16.37;89.38
63006;BME280;53704;52.532;6.426;2022-07-26T03:40:16;101207.03;;;16.16;89.46
63006;BME280;53704;52.532;6.426;2022-07-26T03:42:43;101215.38;;;16.15;90.47
63006;BME280;53704;52.532;6.426;2022-07-26T03:45:08;101217.78;;;16.09;90.26
63006;BME280;53704;52.532;6.426;2022-07-26T03:47:34;101226.50;;;16.20;90.80
63006;BME280;53704;52.532;6.426;2022-07-26T03:50:02;101222.97;;;16.04;91.90
63006;BME280;53704;52.532;6.426;2022-07-26T03:52:28;101229.34;;;15.97;93.64
63006;BME280;53704;52.532;6.426;2022-07-26T03:54:53;101216.56;;;16.12;92.05
63006;BME280;53704;52.532;6.426;2022-07-26T03:57:18;101219.34;;;16.19;92.13
63006;BME280;53704;52.532;6.426;2022-07-26T03:59:44;101214.50;;;16.14;93.42
63006;BME280;53704;52.532;6.426;2022-07-26T04:02:09;101213.22;;;16.10;93.61
63006;BME280;53704;52.532;6.426;2022-07-26T04:04:35;101212.25;;;16.18;93.84
63006;BME280;53704;52.532;6.426;2022-07-26T04:07:00;101223.88;;;16.12;93.78
63006;BME280;53704;52.532;6.426;2022-07-26T04:09:26;101241.78;;;16.06;96.01
63006;BME280;53704;52.532;6.426;2022-07-26T04:11:51;101243.59;;;15.84;98.67
63006;BME280;53704;52.532;6.426;2022-07-26T04:14:16;101253.00;;;15.73;99.97
63006;BME280;53704;52.532;6.426;2022-07-26T04:16:42;101243.66;;;15.90;99.34
63006;BME280;53704;52.532;6.426;2022-07-26T04:19:07;101247.59;;;16.03;99.00
63006;BME280;53704;52.532;6.426;2022-07-26T04:21:33;101251.72;;;15.84;98.94
63006;BME280;53704;52.532;6.426;2022-07-26T04:23:58;101261.00;;;15.89;99.14
63006;BME280;53704;52.532;6.426;2022-07-26T04:26:24;101260.91;;;15.98;99.97
63006;BME280;53704;52.532;6.426;2022-07-26T04:28:50;101272.41;;;16.00;99.73
63006;BME280;53704;52.532;6.426;2022-07-26T04:31:15;101272.22;;;16.01;99.76
63006;BME280;53704;52.532;6.426;2022-07-26T04:33:41;101278.47;;;16.17;99.89
63006;BME280;53704;52.532;6.426;2022-07-26T04:36:07;101284.47;;;16.12;100.00
63006;BME280;53704;52.532;6.426;2022-07-26T04:38:32;101279.56;;;16.22;99.38
63006;BME280;53704;52.532;6.426;2022-07-26T04:40:58;101280.38;;;16.16;100.00
63006;BME280;53704;52.532;6.426;2022-07-26T04:43:24;101280.53;;;16.15;99.92
63006;BME280;53704;52.532;6.426;2022-07-26T04:45:49;101293.94;;;16.16;99.36
63006;BME280;53704;52.532;6.426;2022-07-26T04:48:15;101286.94;;;16.07;98.43
63006;BME280;53704;52.532;6.426;2022-07-26T04:50:42;101291.88;;;16.55;96.21
63006;BME280;53704;52.532;6.426;2022-07-26T04:53:08;101285.94;;;16.30;97.94
63006;BME280;53704;52.532;6.426;2022-07-26T04:55:36;101291.03;;;16.54;97.47
63006;BME280;53704;52.532;6.426;2022-07-26T04:58:01;101296.75;;;16.59;95.26
63006;BME280;53704;52.532;6.426;2022-07-26T05:00:27;101299.59;;;16.51;96.38
63006;BME280;53704;52.532;6.426;2022-07-26T05:02:55;101306.59;;;16.60;95.97
63006;BME280;53704;52.532;6.426;2022-07-26T05:05:21;101304.34;;;16.49;96.18
63006;BME280;53704;52.532;6.426;2022-07-26T05:07:49;101305.91;;;16.58;96.04
63006;BME280;53704;52.532;6.426;2022-07-26T05:10:16;101308.63;;;16.58;95.62
63006;BME280;53704;52.532;6.426;2022-07-26T05:12:44;101315.50;;;16.54;95.25
63006;BME280;53704;52.532;6.426;2022-07-26T05:15:11;101311.97;;;16.75;94.78
63006;BME280;53704;52.532;6.426;2022-07-26T05:17:37;101309.88;;;16.77;94.55
63006;BME280;53704;52.532;6.426;2022-07-26T05:20:05;101313.72;;;16.83;94.43
63006;BME280;53704;52.532;6.426;2022-07-26T05:22:30;101319.63;;;16.87;94.41
63006;BME280;53704;52.532;6.426;2022-07-26T05:24:56;101324.69;;;16.90;93.81
63006;BME280;53704;52.532;6.426;2022-07-26T05:27:21;101334.34;;;16.92;94.77
63006;BME280;53704;52.532;6.426;2022-07-26T05:29:47;101330.19;;;16.60;96.78
63006;BME280;53704;52.532;6.426;2022-07-26T05:32:12;101333.50;;;16.92;95.61
63006;BME280;53704;52.532;6.426;2022-07-26T05:34:37;101329.56;;;16.94;95.02
63006;BME280;53704;52.532;6.426;2022-07-26T05:37:03;101338.34;;;16.96;94.40
63006;BME280;53704;52.532;6.426;2022-07-26T05:39:28;101329.28;;;17.11;95.70
63006;BME280;53704;52.532;6.426;2022-07-26T05:41:54;101339.03;;;16.98;96.31
63006;BME280;53704;52.532;6.426;2022-07-26T05:44:19;101341.94;;;16.82;96.57
63006;BME280;53704;52.532;6.426;2022-07-26T05:46:44;101338.50;;;17.10;95.71
63006;BME280;53704;52.532;6.426;2022-07-26T05:49:10;101345.03;;;17.15;95.01
63006;BME280;53704;52.532;6.426;2022-07-26T05:51:35;101348.47;;;17.24;94.37
63006;BME280;53704;52.532;6.426;2022-07-26T05:54:01;101350.94;;;17.19;94.78
63006;BME280;53704;52.532;6.426;2022-07-26T05:56:26;101357.25;;;17.48;93.28
63006;BME280;53704;52.532;6.426;2022-07-26T05:58:51;101354.28;;;17.43;93.51
63006;BME280;53704;52.532;6.426;2022-07-26T06:01:17;101360.59;;;17.50;94.74
63006;BME280;53704;52.532;6.426;2022-07-26T06:03:42;101361.00;;;17.47;94.59
63006;BME280;53704;52.532;6.426;2022-07-26T06:06:08;101364.00;;;17.09;91.87
63006;BME280;53704;52.532;6.426;2022-07-26T06:08:34;101375.53;;;17.32;93.85
63006;BME280;53704;52.532;6.426;2022-07-26T06:11:00;101370.56;;;17.64;91.32
63006;BME280;53704;52.532;6.426;2022-07-26T06:13:25;101367.00;;;17.64;92.21
63006;BME280;53704;52.532;6.426;2022-07-26T06:15:51;101375.25;;;17.77;91.04
63006;BME280;53704;52.532;6.426;2022-07-26T06:18:17;101373.47;;;17.63;91.10
63006;BME280;53704;52.532;6.426;2022-07-26T06:20:45;101376.09;;;17.06;90.08
63006;BME280;53704;52.532;6.426;2022-07-26T06:23:11;101381.25;;;17.16;90.91
63006;BME280;53704;52.532;6.426;2022-07-26T06:25:37;101382.72;;;17.18;89.08
63006;BME280;53704;52.532;6.426;2022-07-26T06:28:07;101390.44;;;17.15;88.19
63006;BME280;53704;52.532;6.426;2022-07-26T06:30:35;101382.72;;;17.18;88.83
63006;BME280;53704;52.532;6.426;2022-07-26T06:33:01;101392.38;;;17.43;87.22
63006;BME280;53704;52.532;6.426;2022-07-26T06:35:26;101408.50;;;17.01;87.62
63006;BME280;53704;52.532;6.426;2022-07-26T06:37:57;101404.16;;;16.40;87.26
63006;BME280;53704;52.532;6.426;2022-07-26T06:40:23;101413.81;;;16.58;87.92
63006;BME280;53704;52.532;6.426;2022-07-26T06:42:48;101414.03;;;16.41;87.32
63006;BME280;53704;52.532;6.426;2022-07-26T06:45:14;101418.69;;;16.33;88.50
63006;BME280;53704;52.532;6.426;2022-07-26T06:47:39;101423.47;;;16.60;86.81
63006;BME280;53704;52.532;6.426;2022-07-26T06:50:05;101424.13;;;16.62;88.02
63006;BME280;53704;52.532;6.426;2022-07-26T06:52:31;101435.00;;;16.62;89.45
63006;BME280;53704;52.532;6.426;2022-07-26T06:55:00;101429.94;;;16.30;87.36
63006;BME280;53704;52.532;6.426;2022-07-26T06:57:26;101437.81;;;16.54;88.00
63006;BME280;53704;52.532;6.426;2022-07-26T06:59:51;101445.50;;;16.36;88.44
63006;BME280;53704;52.532;6.426;2022-07-26T07:02:17;101444.19;;;16.46;89.61
63006;BME280;53704;52.532;6.426;2022-07-26T07:04:43;101448.75;;;16.46;88.09
63006;BME280;53704;52.532;6.426;2022-07-26T07:07:08;101443.78;;;16.64;87.02
63006;BME280;53704;52.532;6.426;2022-07-26T07:09:35;101452.31;;;16.61;86.06
63006;BME280;53704;52.532;6.426;2022-07-26T07:12:04;101454.31;;;16.53;85.05
63006;BME280;53704;52.532;6.426;2022-07-26T07:14:30;101452.78;;;16.50;86.38
63006;BME280;53704;52.532;6.426;2022-07-26T07:16:56;101460.47;;;16.91;85.92
63006;BME280;53704;52.532;6.426;2022-07-26T07:19:23;101464.88;;;16.62;84.42
63006;BME280;53704;52.532;6.426;2022-07-26T07:21:48;101467.78;;;16.91;86.08
63006;BME280;53704;52.532;6.426;2022-07-26T07:24:14;101468.06;;;16.81;82.86
63006;BME280;53704;52.532;6.426;2022-07-26T07:26:40;101473.31;;;16.82;83.64
63006;BME280;53704;52.532;6.426;2022-07-26T07:29:06;101472.63;;;16.80;83.24
63006;BME280;53704;52.532;6.426;2022-07-26T07:31:34;101473.13;;;16.84;82.77
63006;BME280;53704;52.532;6.426;2022-07-26T07:33:59;101480.63;;;16.67;83.15
63006;BME280;53704;52.532;6.426;2022-07-26T07:36:25;101482.22;;;16.61;82.15
63006;BME280;53704;52.532;6.426;2022-07-26T07:38:50;101473.88;;;16.48;82.28
63006;BME280;53704;52.532;6.426;2022-07-26T07:41:15;101480.91;;;16.87;82.13
63006;BME280;53704;52.532;6.426;2022-07-26T07:43:42;101484.25;;;17.04;82.65
63006;BME280;53704;52.532;6.426;2022-07-26T07:46:08;101484.56;;;16.94;82.35
63006;BME280;53704;52.532;6.426;2022-07-26T07:48:33;101484.91;;;17.06;81.43
63006;BME280;53704;52.532;6.426;2022-07-26T07:50:59;101485.59;;;16.78;81.52
63006;BME280;53704;52.532;6.426;2022-07-26T07:53:24;101488.69;;;17.05;79.88
63006;BME280;53704;52.532;6.426;2022-07-26T07:55:50;101497.31;;;16.79;78.04
63006;BME280;53704;52.532;6.426;2022-07-26T07:58:18;101494.81;;;16.92;78.18
63006;BME280;53704;52.532;6.426;2022-07-26T08:00:44;101495.03;;;17.12;76.70
63006;BME280;53704;52.532;6.426;2022-07-26T08:03:10;101501.97;;;17.15;78.25
63006;BME280;53704;52.532;6.426;2022-07-26T08:05:35;101501.00;;;17.59;77.75
63006;BME280;53704;52.532;6.426;2022-07-26T08:08:00;101506.41;;;17.96;78.41
63006;BME280;53704;52.532;6.426;2022-07-26T08:10:27;101498.78;;;17.69;75.06
63006;BME280;53704;52.532;6.426;2022-07-26T08:12:53;101497.75;;;17.49;74.02
63006;BME280;53704;52.532;6.426;2022-07-26T08:15:19;101506.97;;;17.91;75.12
63006;BME280;53704;52.532;6.426;2022-07-26T08:17:46;101508.81;;;18.12;73.71
63006;BME280;53704;52.532;6.426;2022-07-26T08:20:11;101503.88;;;18.22;70.90
63006;BME280;53704;52.532;6.426;2022-07-26T08:22:37;101504.72;;;18.23;71.78
63006;BME280;53704;52.532;6.426;2022-07-26T08:25:02;101519.59;;;18.20;69.98
63006;BME280;53704;52.532;6.426;2022-07-26T08:27:28;101508.91;;;18.19;68.76
63006;BME280;53704;52.532;6.426;2022-07-26T08:29:53;101519.25;;;18.58;69.24
63006;BME280;53704;52.532;6.426;2022-07-26T08:32:19;101515.91;;;18.06;69.28
63006;BME280;53704;52.532;6.426;2022-07-26T08:34:44;101518.84;;;18.33;70.46
63006;BME280;53704;52.532;6.426;2022-07-26T08:37:10;101522.97;;;18.51;70.57
63006;BME280;53704;52.532;6.426;2022-07-26T08:39:35;101526.97;;;18.55;69.94
63006;BME280;53704;52.532;6.426;2022-07-26T08:42:02;101523.94;;;18.71;68.43
63006;BME280;53704;52.532;6.426;2022-07-26T08:44:28;101530.00;;;18.73;68.88
63006;BME280;53704;52.532;6.426;2022-07-26T08:46:54;101530.50;;;18.49;69.73
63006;BME280;53704;52.532;6.426;2022-07-26T08:49:19;101533.56;;;18.39;71.02
63006;BME280;53704;52.532;6.426;2022-07-26T08:51:44;101538.81;;;18.40;70.23
63006;BME280;53704;52.532;6.426;2022-07-26T08:54:13;101545.78;;;18.21;69.35
63006;BME280;53704;52.532;6.426;2022-07-26T08:56:49;101548.41;;;18.30;68.02
63006;BME280;53704;52.532;6.426;2022-07-26T08:59:16;101546.50;;;18.58;69.25
63006;BME280;53704;52.532;6.426;2022-07-26T09:01:52;101555.28;;;19.24;68.31
63006;BME280;53704;52.532;6.426;2022-07-26T09:04:21;101550.03;;;19.22;64.98
63006;BME280;53704;52.532;6.426;2022-07-26T09:07:16;101550.59;;;19.11;63.98
63006;BME280;53704;52.532;6.426;2022-07-26T09:10:04;101566.25;;;19.37;63.51
63006;BME280;53704;52.532;6.426;2022-07-26T09:12:31;101564.91;;;19.20;61.89
63006;BME280;53704;52.532;6.426;2022-07-26T09:14:57;101561.25;;;18.99;62.17
63006;BME280;53704;52.532;6.426;2022-07-26T09:17:24;101565.00;;;19.46;63.19
63006;BME280;53704;52.532;6.426;2022-07-26T09:20:06;101573.38;;;20.00;63.47
63006;BME280;53704;52.532;6.426;2022-07-26T09:22:34;101569.38;;;20.02;61.98
63006;BME280;53704;52.532;6.426;2022-07-26T09:24:59;101575.19;;;19.66;61.79
63006;BME280;53704;52.532;6.426;2022-07-26T09:27:33;101579.53;;;19.47;62.80
63006;BME280;53704;52.532;6.426;2022-07-26T09:30:07;101573.19;;;19.46;62.98
63006;BME280;53704;52.532;6.426;2022-07-26T09:32:33;101572.34;;;19.32;63.46
63006;BME280;53704;52.532;6.426;2022-07-26T09:35:12;101578.94;;;19.65;62.05
63006;BME280;53704;52.532;6.426;2022-07-26T09:37:41;101592.78;;;19.57;62.58
63006;BME280;53704;52.532;6.426;2022-07-26T09:40:13;101591.81;;;19.78;63.29
63006;BME280;53704;52.532;6.426;2022-07-26T09:45:19;101595.22;;;19.38;62.72
63006;BME280;53704;52.532;6.426;2022-07-26T09:47:45;101598.84;;;19.04;64.85
63006;BME280;53704;52.532;6.426;2022-07-26T09:50:25;101599.97;;;19.16;64.23
63006;BME280;53704;52.532;6.426;2022-07-26T09:53:00;101604.66;;;19.77;64.72
63006;BME280;53704;52.532;6.426;2022-07-26T09:55:28;101607.38;;;19.77;64.58
63006;BME280;53704;52.532;6.426;2022-07-26T09:57:53;101604.34;;;19.59;62.31
63006;BME280;53704;52.532;6.426;2022-07-26T10:00:19;101601.31;;;20.02;62.54
63006;BME280;53704;52.532;6.426;2022-07-26T10:02:45;101607.06;;;20.34;62.92
63006;BME280;53704;52.532;6.426;2022-07-26T10:05:10;101615.38;;;19.79;63.01
63006;BME280;53704;52.532;6.426;2022-07-26T10:07:36;101613.28;;;19.87;62.77
63006;BME280;53704;52.532;6.426;2022-07-26T10:10:06;101608.47;;;19.96;62.68
63006;BME280;53704;52.532;6.426;2022-07-26T10:12:33;101610.19;;;20.44;61.13
63006;BME280;53704;52.532;6.426;2022-07-26T10:14:59;101619.88;;;20.80;59.52
63006;BME280;53704;52.532;6.426;2022-07-26T10:19:54;101623.47;;;20.60;58.49
63006;BME280;53704;52.532;6.426;2022-07-26T10:22:34;101623.00;;;21.04;57.74
63006;BME280;53704;52.532;6.426;2022-07-26T10:27:47;101634.19;;;20.49;58.35
63006;BME280;53704;52.532;6.426;2022-07-26T10:35:39;101647.81;;;20.15;59.81
63006;BME280;53704;52.532;6.426;2022-07-26T10:38:12;101646.31;;;19.99;57.82
63006;BME280;53704;52.532;6.426;2022-07-26T10:40:57;101656.06;;;20.49;56.93
63006;BME280;53704;52.532;6.426;2022-07-26T10:43:23;101647.41;;;20.32;57.73
63006;BME280;53704;52.532;6.426;2022-07-26T10:51:28;101655.81;;;20.30;56.98
63006;BME280;53704;52.532;6.426;2022-07-26T10:54:03;101659.31;;;19.42;59.73
63006;BME280;53704;52.532;6.426;2022-07-26T10:56:28;101660.13;;;19.36;61.06
63006;BME280;53704;52.532;6.426;2022-07-26T10:58:54;101666.03;;;19.05;62.08
63006;BME280;53704;52.532;6.426;2022-07-26T11:01:20;101672.72;;;19.02;62.41
63006;BME280;53704;52.532;6.426;2022-07-26T11:03:46;101670.81;;;19.31;62.21
63006;BME280;53704;52.532;6.426;2022-07-26T11:06:16;101676.44;;;19.64;61.44
63006;BME280;53704;52.532;6.426;2022-07-26T11:08:44;101674.31;;;19.60;60.75
63006;BME280;53704;52.532;6.426;2022-07-26T11:11:10;101675.91;;;19.82;60.39
63006;BME280;53704;52.532;6.426;2022-07-26T11:13:35;101680.00;;;19.65;60.66
63006;BME280;53704;52.532;6.426;2022-07-26T11:16:04;101686.78;;;19.34;61.23
63006;BME280;53704;52.532;6.426;2022-07-26T11:18:34;101696.41;;;19.30;63.34
63006;BME280;53704;52.532;6.426;2022-07-26T11:21:16;101699.88;;;19.10;64.67
63006;BME280;53704;52.532;6.426;2022-07-26T11:23:46;101704.41;;;19.31;67.32
63006;BME280;53704;52.532;6.426;2022-07-26T11:26:19;101701.69;;;18.53;67.52
63006;BME280;53704;52.532;6.426;2022-07-26T11:29:00;101703.50;;;18.96;65.96
63006;BME280;53704;52.532;6.426;2022-07-26T11:34:04;101709.53;;;18.85;64.06
63006;BME280;53704;52.532;6.426;2022-07-26T11:36:36;101705.06;;;19.05;62.17
63006;BME280;53704;52.532;6.426;2022-07-26T11:39:04;101710.88;;;18.95;62.54
63006;BME280;53704;52.532;6.426;2022-07-26T11:41:30;101705.63;;;19.29;61.87
63006;BME280;53704;52.532;6.426;2022-07-26T11:43:56;101709.09;;;19.44;60.13
63006;BME280;53704;52.532;6.426;2022-07-26T11:46:23;101710.31;;;19.35;59.85
63006;BME280;53704;52.532;6.426;2022-07-26T11:48:57;101712.59;;;18.81;60.03
63006;BME280;53704;52.532;6.426;2022-07-26T11:51:23;101716.53;;;19.22;59.93
63006;BME280;53704;52.532;6.426;2022-07-26T11:53:50;101724.22;;;19.12;61.01
63006;BME280;53704;52.532;6.426;2022-07-26T11:56:18;101726.00;;;19.26;58.95
63006;BME280;53704;52.532;6.426;2022-07-26T11:58:50;101716.13;;;19.67;60.10
63006;BME280;53704;52.532;6.426;2022-07-26T12:01:18;101720.53;;;20.03;58.63
63006;BME280;53704;52.532;6.426;2022-07-26T12:03:46;101715.13;;;19.75;58.74
63006;BME280;53704;52.532;6.426;2022-07-26T12:06:14;101714.88;;;19.63;58.16
63006;BME280;53704;52.532;6.426;2022-07-26T12:11:08;101726.22;;;19.25;59.23
63006;BME280;53704;52.532;6.426;2022-07-26T12:13:47;101728.69;;;18.70;59.46
63006;BME280;53704;52.532;6.426;2022-07-26T12:16:32;101729.06;;;18.67;60.20
63006;BME280;53704;52.532;6.426;2022-07-26T12:18:58;101731.78;;;18.67;61.32
63006;BME280;53704;52.532;6.426;2022-07-26T12:21:36;101734.44;;;18.81;59.81
63006;BME280;53704;52.532;6.426;2022-07-26T12:24:02;101743.53;;;19.10;60.53
63006;BME280;53704;52.532;6.426;2022-07-26T12:26:28;101734.16;;;18.91;60.04
63006;BME280;53704;52.532;6.426;2022-07-26T12:28:56;101740.81;;;19.10;59.67
63006;BME280;53704;52.532;6.426;2022-07-26T12:31:28;101736.03;;;19.19;58.55
63006;BME280;53704;52.532;6.426;2022-07-26T12:33:54;101734.06;;;19.41;58.33
63006;BME280;53704;52.532;6.426;2022-07-26T12:36:21;101736.91;;;19.55;57.18
63006;BME280;53704;52.532;6.426;2022-07-26T12:38:47;101724.44;;;19.80;58.00
63006;BME280;53704;52.532;6.426;2022-07-26T12:41:36;101722.25;;;19.69;55.87
63006;BME280;53704;52.532;6.426;2022-07-26T12:44:04;101722.91;;;20.19;55.71
63006;BME280;53704;52.532;6.426;2022-07-26T12:46:33;101733.56;;;20.01;56.25
63006;BME280;53704;52.532;6.426;2022-07-26T12:48:59;101733.97;;;19.98;55.48
63006;BME280;53704;52.532;6.426;2022-07-26T12:51:25;101736.19;;;20.42;53.55
63006;BME280;53704;52.532;6.426;2022-07-26T12:53:50;101729.91;;;20.55;53.28
63006;BME280;53704;52.532;6.426;2022-07-26T12:56:16;101732.22;;;20.45;51.66
63006;BME280;53704;52.532;6.426;2022-07-26T12:58:41;101735.66;;;20.74;53.96
63006;BME280;53704;52.532;6.426;2022-07-26T13:01:06;101740.88;;;19.94;51.84
63006;BME280;53704;52.532;6.426;2022-07-26T13:03:32;101744.63;;;19.86;52.98
63006;BME280;53704;52.532;6.426;2022-07-26T13:05:58;101738.53;;;20.52;53.72
63006;BME280;53704;52.532;6.426;2022-07-26T13:08:23;101738.31;;;20.47;51.39
63006;BME280;53704;52.532;6.426;2022-07-26T13:10:48;101739.41;;;20.73;53.34
63006;BME280;53704;52.532;6.426;2022-07-26T13:13:14;101744.06;;;20.79;52.16